Ana Sayfa
METAR-TAF:

METAR-TAF

Havaalanları :

Tokat Havalimanı

Tokat, Türkiye

Enlem: 40-18N, Boylam: 036-34E, yükseklik: 608 m

Güncel hava durumu gözlemi

Rapor saat 08:50 UTC de 48 dakika önce yapıldı.
Rüzgar değişken yönden 2 kt
Sıcaklık 13°C
Nem 51%
Basınç 1020 hPa
Görüş mesafesi 10 km veya daha fazla
4000 ft yükseklikte parçalı bulutlu
10000 ft yükseklikte parçalı çok bulutlu

METAR: LTAW 190850Z VRB02KT 9999 SCT040 BKN100 13/03 Q1020

Saat: 12:38 (09:38 UTC)

Tahmin

Rapor saat 07:40 UTC de 1 saat ve 58 dakika önce yapıldı.
Ayın 19'si saat 09 UTC'den ayın 19'si saat 18 UTC'ye kadar geçerli Tahmin
Rüzgar değişken yönden 2 kt
Görüş mesafesi 10 km veya daha fazla
4000 ft yükseklikte parçalı bulutlu
10000 ft yükseklikte parçalı çok bulutlu

TAF: LTAW 190740Z 1909/1918 VRB02KT 9999 SCT040 BKN100

4.000'den fazla havaalanı için hava durumu gözlemleri ve tahminleri (METAR ve TAF raporları).

Kullanılabilir istasyonlar harita üzerinde sarı ve kırmızı noktalarla gösterilir.

İstasyonun adını görmek için fareyi noktanın üzerinde gezdirin.

Sonrasında hava gözlem ve tahminlerini görmek için tıklayın.

Haritayı değiştirmek için: yaklaştırmak için siyah artı işaretli yeşil düğmeye ve uzaklaştırmak için de eksi işaretli düğmeye hızla tıklayın; bitişik haritalar için yeşil okları kullanın.


METAR-TAF: